sensor_id;sensor_type;location;lat;lon;timestamp;P1;durP1;ratioP1;P2;durP2;ratioP2
8716;SDS011;4395;48.554;8.820;2023-02-21T00:02:16;2.90;;;2.45;;
8716;SDS011;4395;48.554;8.820;2023-02-21T00:04:36;3.65;;;2.50;;
8716;SDS011;4395;48.554;8.820;2023-02-21T00:06:58;5.93;;;2.50;;
8716;SDS011;4395;48.554;8.820;2023-02-21T00:09:18;2.97;;;2.15;;
8716;SDS011;4395;48.554;8.820;2023-02-21T00:11:39;4.72;;;2.70;;
8716;SDS011;4395;48.554;8.820;2023-02-21T00:14:00;2.20;;;2.00;;
8716;SDS011;4395;48.554;8.820;2023-02-21T00:16:20;3.55;;;2.30;;
8716;SDS011;4395;48.554;8.820;2023-02-21T00:18:40;2.75;;;2.10;;
8716;SDS011;4395;48.554;8.820;2023-02-21T00:21:01;3.97;;;2.10;;
8716;SDS011;4395;48.554;8.820;2023-02-21T00:23:24;5.32;;;2.17;;
8716;SDS011;4395;48.554;8.820;2023-02-21T00:25:44;3.22;;;2.30;;
8716;SDS011;4395;48.554;8.820;2023-02-21T00:28:05;3.20;;;2.60;;
8716;SDS011;4395;48.554;8.820;2023-02-21T00:30:25;3.05;;;2.17;;
8716;SDS011;4395;48.554;8.820;2023-02-21T00:32:46;4.13;;;2.25;;
8716;SDS011;4395;48.554;8.820;2023-02-21T00:35:07;5.38;;;2.25;;
8716;SDS011;4395;48.554;8.820;2023-02-21T00:37:27;3.03;;;2.10;;
8716;SDS011;4395;48.554;8.820;2023-02-21T00:39:49;2.90;;;1.90;;
8716;SDS011;4395;48.554;8.820;2023-02-21T00:42:10;2.30;;;2.10;;
8716;SDS011;4395;48.554;8.820;2023-02-21T00:44:30;3.03;;;2.00;;
8716;SDS011;4395;48.554;8.820;2023-02-21T00:46:50;6.25;;;2.70;;
8716;SDS011;4395;48.554;8.820;2023-02-21T00:49:11;3.10;;;2.20;;
8716;SDS011;4395;48.554;8.820;2023-02-21T00:51:31;2.80;;;2.15;;
8716;SDS011;4395;48.554;8.820;2023-02-21T00:53:52;5.63;;;2.15;;
8716;SDS011;4395;48.554;8.820;2023-02-21T00:56:13;3.30;;;2.03;;
8716;SDS011;4395;48.554;8.820;2023-02-21T00:58:34;4.18;;;2.10;;
8716;SDS011;4395;48.554;8.820;2023-02-21T01:00:54;3.95;;;2.25;;
8716;SDS011;4395;48.554;8.820;2023-02-21T01:03:15;3.95;;;2.10;;
8716;SDS011;4395;48.554;8.820;2023-02-21T01:05:35;4.20;;;2.20;;
8716;SDS011;4395;48.554;8.820;2023-02-21T01:07:56;2.92;;;2.03;;
8716;SDS011;4395;48.554;8.820;2023-02-21T01:10:16;4.30;;;2.25;;
8716;SDS011;4395;48.554;8.820;2023-02-21T01:12:40;2.75;;;2.42;;
8716;SDS011;4395;48.554;8.820;2023-02-21T01:15:00;3.13;;;2.08;;
8716;SDS011;4395;48.554;8.820;2023-02-21T01:17:21;3.15;;;2.30;;
8716;SDS011;4395;48.554;8.820;2023-02-21T01:19:41;3.47;;;2.85;;
8716;SDS011;4395;48.554;8.820;2023-02-21T01:22:02;2.80;;;2.60;;
8716;SDS011;4395;48.554;8.820;2023-02-21T01:24:23;3.55;;;2.80;;
8716;SDS011;4395;48.554;8.820;2023-02-21T01:26:43;4.25;;;2.10;;
8716;SDS011;4395;48.554;8.820;2023-02-21T01:29:05;5.18;;;3.13;;
8716;SDS011;4395;48.554;8.820;2023-02-21T01:31:26;2.80;;;2.50;;
8716;SDS011;4395;48.554;8.820;2023-02-21T01:33:47;3.63;;;2.63;;
8716;SDS011;4395;48.554;8.820;2023-02-21T01:36:07;3.95;;;2.67;;
8716;SDS011;4395;48.554;8.820;2023-02-21T01:38:32;6.60;;;3.00;;
8716;SDS011;4395;48.554;8.820;2023-02-21T01:40:52;4.45;;;2.45;;
8716;SDS011;4395;48.554;8.820;2023-02-21T01:43:13;3.72;;;2.40;;
8716;SDS011;4395;48.554;8.820;2023-02-21T01:45:42;5.80;;;2.60;;
8716;SDS011;4395;48.554;8.820;2023-02-21T01:48:06;2.50;;;2.30;;
8716;SDS011;4395;48.554;8.820;2023-02-21T01:50:28;4.25;;;2.60;;
8716;SDS011;4395;48.554;8.820;2023-02-21T01:52:51;4.85;;;2.33;;
8716;SDS011;4395;48.554;8.820;2023-02-21T01:55:11;3.40;;;2.83;;
8716;SDS011;4395;48.554;8.820;2023-02-21T01:57:32;4.72;;;2.65;;
8716;SDS011;4395;48.554;8.820;2023-02-21T01:59:55;3.08;;;2.35;;
8716;SDS011;4395;48.554;8.820;2023-02-21T02:02:20;4.15;;;2.42;;
8716;SDS011;4395;48.554;8.820;2023-02-21T02:04:47;4.18;;;2.42;;
8716;SDS011;4395;48.554;8.820;2023-02-21T02:07:09;6.40;;;2.78;;
8716;SDS011;4395;48.554;8.820;2023-02-21T02:09:29;3.15;;;2.30;;
8716;SDS011;4395;48.554;8.820;2023-02-21T02:11:59;3.22;;;2.17;;
8716;SDS011;4395;48.554;8.820;2023-02-21T02:14:33;3.35;;;2.30;;
8716;SDS011;4395;48.554;8.820;2023-02-21T02:16:50;4.78;;;2.40;;
8716;SDS011;4395;48.554;8.820;2023-02-21T02:21:59;3.20;;;2.63;;
8716;SDS011;4395;48.554;8.820;2023-02-21T02:26:59;3.53;;;2.50;;
8716;SDS011;4395;48.554;8.820;2023-02-21T02:29:32;3.22;;;2.80;;
8716;SDS011;4395;48.554;8.820;2023-02-21T02:31:58;6.07;;;2.92;;
8716;SDS011;4395;48.554;8.820;2023-02-21T02:34:34;3.10;;;2.47;;
8716;SDS011;4395;48.554;8.820;2023-02-21T02:36:48;5.82;;;3.35;;
8716;SDS011;4395;48.554;8.820;2023-02-21T02:38:55;5.00;;;3.00;;
8716;SDS011;4395;48.554;8.820;2023-02-21T02:41:06;3.40;;;3.10;;
8716;SDS011;4395;48.554;8.820;2023-02-21T02:43:15;4.75;;;3.10;;
8716;SDS011;4395;48.554;8.820;2023-02-21T02:45:24;5.28;;;3.03;;
8716;SDS011;4395;48.554;8.820;2023-02-21T02:47:32;4.60;;;2.67;;
8716;SDS011;4395;48.554;8.820;2023-02-21T02:49:40;3.45;;;2.88;;
8716;SDS011;4395;48.554;8.820;2023-02-21T02:51:45;3.92;;;2.40;;
8716;SDS011;4395;48.554;8.820;2023-02-21T02:53:50;3.75;;;2.95;;
8716;SDS011;4395;48.554;8.820;2023-02-21T02:55:55;4.68;;;2.60;;
8716;SDS011;4395;48.554;8.820;2023-02-21T02:58:00;4.05;;;3.08;;
8716;SDS011;4395;48.554;8.820;2023-02-21T03:00:05;3.58;;;2.70;;
8716;SDS011;4395;48.554;8.820;2023-02-21T03:02:15;3.80;;;2.70;;
8716;SDS011;4395;48.554;8.820;2023-02-21T03:04:36;4.13;;;2.78;;
8716;SDS011;4395;48.554;8.820;2023-02-21T03:06:53;3.85;;;3.25;;
8716;SDS011;4395;48.554;8.820;2023-02-21T03:09:07;5.97;;;3.80;;
8716;SDS011;4395;48.554;8.820;2023-02-21T03:11:16;6.38;;;3.40;;
8716;SDS011;4395;48.554;8.820;2023-02-21T03:13:23;6.00;;;3.50;;
8716;SDS011;4395;48.554;8.820;2023-02-21T03:15:38;8.73;;;3.60;;
8716;SDS011;4395;48.554;8.820;2023-02-21T03:17:49;6.05;;;3.70;;
8716;SDS011;4395;48.554;8.820;2023-02-21T03:20:02;4.47;;;3.30;;
8716;SDS011;4395;48.554;8.820;2023-02-21T03:22:07;5.97;;;3.00;;
8716;SDS011;4395;48.554;8.820;2023-02-21T03:24:12;4.85;;;2.90;;
8716;SDS011;4395;48.554;8.820;2023-02-21T03:26:17;5.97;;;3.00;;
8716;SDS011;4395;48.554;8.820;2023-02-21T03:28:25;5.13;;;3.20;;
8716;SDS011;4395;48.554;8.820;2023-02-21T03:30:30;6.32;;;3.30;;
8716;SDS011;4395;48.554;8.820;2023-02-21T03:32:35;3.35;;;2.55;;
8716;SDS011;4395;48.554;8.820;2023-02-21T03:34:41;3.05;;;2.33;;
8716;SDS011;4395;48.554;8.820;2023-02-21T03:36:48;4.68;;;2.50;;
8716;SDS011;4395;48.554;8.820;2023-02-21T03:38:52;5.90;;;2.35;;
8716;SDS011;4395;48.554;8.820;2023-02-21T03:40:55;2.35;;;2.13;;
8716;SDS011;4395;48.554;8.820;2023-02-21T03:42:59;3.63;;;2.60;;
8716;SDS011;4395;48.554;8.820;2023-02-21T03:45:07;6.32;;;2.40;;
8716;SDS011;4395;48.554;8.820;2023-02-21T03:47:11;4.03;;;2.20;;
8716;SDS011;4395;48.554;8.820;2023-02-21T03:49:14;2.72;;;2.17;;
8716;SDS011;4395;48.554;8.820;2023-02-21T03:51:17;2.75;;;2.10;;
8716;SDS011;4395;48.554;8.820;2023-02-21T03:53:22;2.85;;;1.98;;
8716;SDS011;4395;48.554;8.820;2023-02-21T03:55:25;5.97;;;2.03;;
8716;SDS011;4395;48.554;8.820;2023-02-21T03:57:28;9.93;;;4.43;;
8716;SDS011;4395;48.554;8.820;2023-02-21T03:59:31;8.43;;;5.20;;
8716;SDS011;4395;48.554;8.820;2023-02-21T04:01:34;5.25;;;3.47;;
8716;SDS011;4395;48.554;8.820;2023-02-21T04:03:37;4.55;;;2.78;;
8716;SDS011;4395;48.554;8.820;2023-02-21T04:05:40;3.50;;;2.20;;
8716;SDS011;4395;48.554;8.820;2023-02-21T04:07:43;3.42;;;2.92;;
8716;SDS011;4395;48.554;8.820;2023-02-21T04:09:48;6.57;;;4.00;;
8716;SDS011;4395;48.554;8.820;2023-02-21T04:12:03;2.63;;;2.22;;
8716;SDS011;4395;48.554;8.820;2023-02-21T04:14:08;5.30;;;2.60;;
8716;SDS011;4395;48.554;8.820;2023-02-21T04:16:11;6.20;;;2.78;;
8716;SDS011;4395;48.554;8.820;2023-02-21T04:18:14;3.45;;;2.10;;
8716;SDS011;4395;48.554;8.820;2023-02-21T04:20:18;4.15;;;2.08;;
8716;SDS011;4395;48.554;8.820;2023-02-21T04:22:25;3.90;;;2.30;;
8716;SDS011;4395;48.554;8.820;2023-02-21T04:24:28;2.92;;;2.38;;
8716;SDS011;4395;48.554;8.820;2023-02-21T04:26:32;4.88;;;2.42;;
8716;SDS011;4395;48.554;8.820;2023-02-21T04:28:37;6.90;;;2.85;;
8716;SDS011;4395;48.554;8.820;2023-02-21T04:30:39;4.28;;;2.30;;
8716;SDS011;4395;48.554;8.820;2023-02-21T04:32:43;3.85;;;2.17;;
8716;SDS011;4395;48.554;8.820;2023-02-21T04:34:48;2.40;;;2.10;;
8716;SDS011;4395;48.554;8.820;2023-02-21T04:36:50;4.15;;;2.42;;
8716;SDS011;4395;48.554;8.820;2023-02-21T04:38:53;3.97;;;3.22;;
8716;SDS011;4395;48.554;8.820;2023-02-21T04:40:57;3.28;;;2.55;;
8716;SDS011;4395;48.554;8.820;2023-02-21T04:43:01;2.38;;;2.17;;
8716;SDS011;4395;48.554;8.820;2023-02-21T04:45:04;4.78;;;3.28;;
8716;SDS011;4395;48.554;8.820;2023-02-21T04:47:07;6.43;;;3.10;;
8716;SDS011;4395;48.554;8.820;2023-02-21T04:49:10;3.10;;;2.53;;
8716;SDS011;4395;48.554;8.820;2023-02-21T04:51:14;9.90;;;4.97;;
8716;SDS011;4395;48.554;8.820;2023-02-21T04:53:20;3.95;;;2.72;;
8716;SDS011;4395;48.554;8.820;2023-02-21T04:55:23;6.68;;;3.03;;
8716;SDS011;4395;48.554;8.820;2023-02-21T04:57:26;3.45;;;2.47;;
8716;SDS011;4395;48.554;8.820;2023-02-21T04:59:30;4.85;;;2.63;;
8716;SDS011;4395;48.554;8.820;2023-02-21T05:01:33;6.00;;;2.53;;
8716;SDS011;4395;48.554;8.820;2023-02-21T05:03:36;7.70;;;3.03;;
8716;SDS011;4395;48.554;8.820;2023-02-21T05:05:38;3.78;;;2.58;;
8716;SDS011;4395;48.554;8.820;2023-02-21T05:07:41;4.13;;;2.42;;
8716;SDS011;4395;48.554;8.820;2023-02-21T05:09:44;5.15;;;2.40;;
8716;SDS011;4395;48.554;8.820;2023-02-21T05:11:47;4.03;;;2.58;;
8716;SDS011;4395;48.554;8.820;2023-02-21T05:13:50;4.22;;;2.60;;
8716;SDS011;4395;48.554;8.820;2023-02-21T05:15:54;4.40;;;2.70;;
8716;SDS011;4395;48.554;8.820;2023-02-21T05:17:57;2.67;;;2.38;;
8716;SDS011;4395;48.554;8.820;2023-02-21T05:19:59;9.00;;;4.93;;
8716;SDS011;4395;48.554;8.820;2023-02-21T05:22:02;5.63;;;3.20;;
8716;SDS011;4395;48.554;8.820;2023-02-21T05:24:07;11.18;;;5.13;;
8716;SDS011;4395;48.554;8.820;2023-02-21T05:26:10;23.42;;;12.27;;
8716;SDS011;4395;48.554;8.820;2023-02-21T05:28:14;13.05;;;7.18;;
8716;SDS011;4395;48.554;8.820;2023-02-21T05:30:18;5.93;;;3.00;;
8716;SDS011;4395;48.554;8.820;2023-02-21T05:32:24;4.35;;;3.22;;
8716;SDS011;4395;48.554;8.820;2023-02-21T05:34:29;4.50;;;2.78;;
8716;SDS011;4395;48.554;8.820;2023-02-21T05:36:32;28.27;;;15.52;;
8716;SDS011;4395;48.554;8.820;2023-02-21T05:38:42;9.70;;;4.72;;
8716;SDS011;4395;48.554;8.820;2023-02-21T05:40:45;4.95;;;3.10;;
8716;SDS011;4395;48.554;8.820;2023-02-21T05:42:48;4.80;;;2.75;;
8716;SDS011;4395;48.554;8.820;2023-02-21T05:44:51;3.78;;;2.58;;
8716;SDS011;4395;48.554;8.820;2023-02-21T05:46:54;2.83;;;2.55;;
8716;SDS011;4395;48.554;8.820;2023-02-21T05:48:58;2.88;;;2.45;;
8716;SDS011;4395;48.554;8.820;2023-02-21T05:51:02;5.88;;;2.53;;
8716;SDS011;4395;48.554;8.820;2023-02-21T05:53:05;4.35;;;2.40;;
8716;SDS011;4395;48.554;8.820;2023-02-21T05:55:10;5.90;;;3.15;;
8716;SDS011;4395;48.554;8.820;2023-02-21T05:57:13;4.07;;;2.40;;
8716;SDS011;4395;48.554;8.820;2023-02-21T05:59:16;5.85;;;2.85;;
8716;SDS011;4395;48.554;8.820;2023-02-21T06:01:20;3.60;;;2.55;;
8716;SDS011;4395;48.554;8.820;2023-02-21T06:03:22;4.07;;;2.63;;
8716;SDS011;4395;48.554;8.820;2023-02-21T06:05:26;3.10;;;2.42;;
8716;SDS011;4395;48.554;8.820;2023-02-21T06:07:29;3.03;;;2.72;;
8716;SDS011;4395;48.554;8.820;2023-02-21T06:09:32;7.90;;;4.43;;
8716;SDS011;4395;48.554;8.820;2023-02-21T06:11:35;7.95;;;4.63;;
8716;SDS011;4395;48.554;8.820;2023-02-21T06:13:41;7.85;;;4.50;;
8716;SDS011;4395;48.554;8.820;2023-02-21T06:15:43;6.03;;;4.03;;
8716;SDS011;4395;48.554;8.820;2023-02-21T06:17:46;4.30;;;2.97;;
8716;SDS011;4395;48.554;8.820;2023-02-21T06:19:49;4.45;;;3.05;;
8716;SDS011;4395;48.554;8.820;2023-02-21T06:21:53;4.13;;;3.05;;
8716;SDS011;4395;48.554;8.820;2023-02-21T06:23:56;5.15;;;3.00;;
8716;SDS011;4395;48.554;8.820;2023-02-21T06:25:58;3.13;;;2.83;;
8716;SDS011;4395;48.554;8.820;2023-02-21T06:28:01;3.67;;;2.60;;
8716;SDS011;4395;48.554;8.820;2023-02-21T06:30:05;6.95;;;3.30;;
8716;SDS011;4395;48.554;8.820;2023-02-21T06:32:09;4.70;;;2.90;;
8716;SDS011;4395;48.554;8.820;2023-02-21T06:34:11;5.38;;;3.05;;
8716;SDS011;4395;48.554;8.820;2023-02-21T06:36:15;3.75;;;2.80;;
8716;SDS011;4395;48.554;8.820;2023-02-21T06:38:20;4.82;;;2.97;;
8716;SDS011;4395;48.554;8.820;2023-02-21T06:40:23;5.47;;;3.40;;
8716;SDS011;4395;48.554;8.820;2023-02-21T06:42:26;4.63;;;3.30;;
8716;SDS011;4395;48.554;8.820;2023-02-21T06:44:30;8.63;;;4.90;;
8716;SDS011;4395;48.554;8.820;2023-02-21T06:46:32;6.22;;;3.10;;
8716;SDS011;4395;48.554;8.820;2023-02-21T06:48:37;6.22;;;3.47;;
8716;SDS011;4395;48.554;8.820;2023-02-21T06:50:40;7.40;;;3.45;;
8716;SDS011;4395;48.554;8.820;2023-02-21T06:52:42;8.20;;;3.80;;
8716;SDS011;4395;48.554;8.820;2023-02-21T06:54:46;7.70;;;3.75;;
8716;SDS011;4395;48.554;8.820;2023-02-21T06:56:51;8.27;;;4.78;;
8716;SDS011;4395;48.554;8.820;2023-02-21T06:58:53;9.23;;;3.55;;
8716;SDS011;4395;48.554;8.820;2023-02-21T07:00:56;7.18;;;3.67;;
8716;SDS011;4395;48.554;8.820;2023-02-21T07:02:59;6.07;;;3.50;;
8716;SDS011;4395;48.554;8.820;2023-02-21T07:05:02;4.65;;;4.03;;
8716;SDS011;4395;48.554;8.820;2023-02-21T07:07:04;4.03;;;3.50;;
8716;SDS011;4395;48.554;8.820;2023-02-21T07:09:07;6.93;;;3.53;;
8716;SDS011;4395;48.554;8.820;2023-02-21T07:11:11;4.43;;;3.60;;
8716;SDS011;4395;48.554;8.820;2023-02-21T07:13:15;5.53;;;3.15;;
8716;SDS011;4395;48.554;8.820;2023-02-21T07:15:17;4.30;;;3.05;;
8716;SDS011;4395;48.554;8.820;2023-02-21T07:17:20;6.03;;;3.72;;
8716;SDS011;4395;48.554;8.820;2023-02-21T07:19:23;4.80;;;3.38;;
8716;SDS011;4395;48.554;8.820;2023-02-21T07:21:26;5.10;;;3.45;;
8716;SDS011;4395;48.554;8.820;2023-02-21T07:23:28;6.55;;;3.55;;
8716;SDS011;4395;48.554;8.820;2023-02-21T07:25:31;4.90;;;3.80;;
8716;SDS011;4395;48.554;8.820;2023-02-21T07:27:35;5.85;;;3.35;;
8716;SDS011;4395;48.554;8.820;2023-02-21T07:29:38;4.30;;;3.08;;
8716;SDS011;4395;48.554;8.820;2023-02-21T07:31:41;4.28;;;3.00;;
8716;SDS011;4395;48.554;8.820;2023-02-21T07:33:43;7.00;;;4.70;;
8716;SDS011;4395;48.554;8.820;2023-02-21T07:35:46;6.18;;;5.10;;
8716;SDS011;4395;48.554;8.820;2023-02-21T07:37:49;8.20;;;5.70;;
8716;SDS011;4395;48.554;8.820;2023-02-21T07:39:52;7.53;;;6.35;;
8716;SDS011;4395;48.554;8.820;2023-02-21T07:41:55;6.82;;;4.82;;
8716;SDS011;4395;48.554;8.820;2023-02-21T07:44:04;8.60;;;4.20;;
8716;SDS011;4395;48.554;8.820;2023-02-21T07:46:08;6.97;;;3.88;;
8716;SDS011;4395;48.554;8.820;2023-02-21T07:48:12;6.82;;;4.53;;
8716;SDS011;4395;48.554;8.820;2023-02-21T07:50:15;11.85;;;4.30;;
8716;SDS011;4395;48.554;8.820;2023-02-21T07:52:18;7.47;;;3.80;;
8716;SDS011;4395;48.554;8.820;2023-02-21T07:54:21;11.02;;;4.20;;
8716;SDS011;4395;48.554;8.820;2023-02-21T07:56:25;7.57;;;4.40;;
8716;SDS011;4395;48.554;8.820;2023-02-21T07:58:28;6.78;;;4.47;;
8716;SDS011;4395;48.554;8.820;2023-02-21T08:00:34;9.93;;;5.85;;
8716;SDS011;4395;48.554;8.820;2023-02-21T08:02:40;10.65;;;4.03;;
8716;SDS011;4395;48.554;8.820;2023-02-21T08:04:49;7.78;;;4.20;;
8716;SDS011;4395;48.554;8.820;2023-02-21T08:06:57;7.43;;;4.05;;
8716;SDS011;4395;48.554;8.820;2023-02-21T08:09:00;5.55;;;3.50;;
8716;SDS011;4395;48.554;8.820;2023-02-21T08:11:03;6.85;;;3.63;;
8716;SDS011;4395;48.554;8.820;2023-02-21T08:13:05;5.55;;;3.67;;
8716;SDS011;4395;48.554;8.820;2023-02-21T08:15:08;5.00;;;3.83;;
8716;SDS011;4395;48.554;8.820;2023-02-21T08:17:12;9.45;;;3.70;;
8716;SDS011;4395;48.554;8.820;2023-02-21T08:19:15;8.02;;;3.95;;
8716;SDS011;4395;48.554;8.820;2023-02-21T08:21:18;8.35;;;4.53;;
8716;SDS011;4395;48.554;8.820;2023-02-21T08:23:21;7.97;;;5.30;;
8716;SDS011;4395;48.554;8.820;2023-02-21T08:25:24;7.30;;;4.82;;
8716;SDS011;4395;48.554;8.820;2023-02-21T08:27:27;7.35;;;4.70;;
8716;SDS011;4395;48.554;8.820;2023-02-21T08:29:29;6.95;;;4.60;;
8716;SDS011;4395;48.554;8.820;2023-02-21T08:31:33;7.68;;;4.88;;
8716;SDS011;4395;48.554;8.820;2023-02-21T08:33:37;7.95;;;4.25;;
8716;SDS011;4395;48.554;8.820;2023-02-21T08:35:40;9.40;;;4.63;;
8716;SDS011;4395;48.554;8.820;2023-02-21T08:37:43;13.63;;;6.70;;
8716;SDS011;4395;48.554;8.820;2023-02-21T08:39:47;9.93;;;6.35;;
8716;SDS011;4395;48.554;8.820;2023-02-21T08:41:52;12.35;;;7.32;;
8716;SDS011;4395;48.554;8.820;2023-02-21T08:43:55;14.52;;;7.75;;
8716;SDS011;4395;48.554;8.820;2023-02-21T08:45:57;16.23;;;8.38;;
8716;SDS011;4395;48.554;8.820;2023-02-21T08:48:00;24.10;;;13.75;;
8716;SDS011;4395;48.554;8.820;2023-02-21T08:50:05;32.78;;;17.42;;
8716;SDS011;4395;48.554;8.820;2023-02-21T08:52:08;16.88;;;9.80;;
8716;SDS011;4395;48.554;8.820;2023-02-21T08:54:10;7.68;;;5.18;;
8716;SDS011;4395;48.554;8.820;2023-02-21T08:56:17;8.60;;;4.55;;
8716;SDS011;4395;48.554;8.820;2023-02-21T08:58:20;5.82;;;4.22;;
8716;SDS011;4395;48.554;8.820;2023-02-21T09:00:23;6.30;;;4.22;;
8716;SDS011;4395;48.554;8.820;2023-02-21T09:02:28;7.55;;;4.50;;
8716;SDS011;4395;48.554;8.820;2023-02-21T09:04:34;8.88;;;4.10;;
8716;SDS011;4395;48.554;8.820;2023-02-21T09:06:38;7.88;;;4.60;;
8716;SDS011;4395;48.554;8.820;2023-02-21T09:08:41;5.85;;;4.35;;
8716;SDS011;4395;48.554;8.820;2023-02-21T09:10:44;4.65;;;3.60;;
8716;SDS011;4395;48.554;8.820;2023-02-21T09:12:49;5.38;;;4.30;;
8716;SDS011;4395;48.554;8.820;2023-02-21T09:14:52;5.13;;;3.63;;
8716;SDS011;4395;48.554;8.820;2023-02-21T09:16:55;5.65;;;3.47;;
8716;SDS011;4395;48.554;8.820;2023-02-21T09:18:58;4.70;;;3.47;;
8716;SDS011;4395;48.554;8.820;2023-02-21T09:21:02;7.50;;;3.53;;
8716;SDS011;4395;48.554;8.820;2023-02-21T09:23:06;4.95;;;3.67;;
8716;SDS011;4395;48.554;8.820;2023-02-21T09:25:09;7.72;;;4.05;;
8716;SDS011;4395;48.554;8.820;2023-02-21T09:27:14;7.20;;;3.60;;
8716;SDS011;4395;48.554;8.820;2023-02-21T09:29:18;7.20;;;3.60;;
8716;SDS011;4395;48.554;8.820;2023-02-21T09:31:20;7.72;;;3.83;;
8716;SDS011;4395;48.554;8.820;2023-02-21T09:33:23;5.25;;;3.78;;
8716;SDS011;4395;48.554;8.820;2023-02-21T09:35:26;7.57;;;3.75;;
8716;SDS011;4395;48.554;8.820;2023-02-21T09:37:31;7.50;;;4.03;;
8716;SDS011;4395;48.554;8.820;2023-02-21T09:39:36;8.13;;;3.92;;
8716;SDS011;4395;48.554;8.820;2023-02-21T09:41:40;5.63;;;3.65;;
8716;SDS011;4395;48.554;8.820;2023-02-21T09:43:45;5.03;;;3.70;;
8716;SDS011;4395;48.554;8.820;2023-02-21T09:45:50;6.93;;;3.05;;
8716;SDS011;4395;48.554;8.820;2023-02-21T09:47:56;5.68;;;3.10;;
8716;SDS011;4395;48.554;8.820;2023-02-21T09:50:03;5.30;;;3.05;;
8716;SDS011;4395;48.554;8.820;2023-02-21T09:54:22;4.60;;;2.70;;
8716;SDS011;4395;48.554;8.820;2023-02-21T09:56:29;4.13;;;2.93;;
8716;SDS011;4395;48.554;8.820;2023-02-21T09:58:35;3.47;;;2.60;;
8716;SDS011;4395;48.554;8.820;2023-02-21T10:00:42;5.55;;;2.55;;
8716;SDS011;4395;48.554;8.820;2023-02-21T10:02:51;7.17;;;2.50;;
8716;SDS011;4395;48.554;8.820;2023-02-21T10:05:01;3.80;;;2.10;;
8716;SDS011;4395;48.554;8.820;2023-02-21T10:07:09;4.03;;;1.70;;
8716;SDS011;4395;48.554;8.820;2023-02-21T10:09:18;3.67;;;2.00;;
8716;SDS011;4395;48.554;8.820;2023-02-21T10:11:33;4.03;;;2.13;;
8716;SDS011;4395;48.554;8.820;2023-02-21T10:13:45;4.50;;;2.13;;
8716;SDS011;4395;48.554;8.820;2023-02-21T10:15:54;5.17;;;2.63;;
8716;SDS011;4395;48.554;8.820;2023-02-21T10:18:04;5.47;;;2.70;;
8716;SDS011;4395;48.554;8.820;2023-02-21T10:20:15;3.33;;;2.10;;
8716;SDS011;4395;48.554;8.820;2023-02-21T10:22:24;4.10;;;2.27;;
8716;SDS011;4395;48.554;8.820;2023-02-21T10:24:32;6.10;;;2.47;;
8716;SDS011;4395;48.554;8.820;2023-02-21T10:26:37;3.97;;;2.47;;
8716;SDS011;4395;48.554;8.820;2023-02-21T10:28:42;4.43;;;2.50;;
8716;SDS011;4395;48.554;8.820;2023-02-21T10:30:45;5.13;;;2.43;;
8716;SDS011;4395;48.554;8.820;2023-02-21T10:32:51;5.67;;;2.73;;
8716;SDS011;4395;48.554;8.820;2023-02-21T10:34:54;7.60;;;2.97;;
8716;SDS011;4395;48.554;8.820;2023-02-21T10:37:01;5.37;;;2.50;;
8716;SDS011;4395;48.554;8.820;2023-02-21T10:39:14;6.20;;;3.10;;
8716;SDS011;4395;48.554;8.820;2023-02-21T10:41:19;6.10;;;2.90;;
8716;SDS011;4395;48.554;8.820;2023-02-21T10:43:26;6.30;;;2.87;;
8716;SDS011;4395;48.554;8.820;2023-02-21T10:45:34;4.00;;;2.63;;
8716;SDS011;4395;48.554;8.820;2023-02-21T10:47:44;3.40;;;2.43;;
8716;SDS011;4395;48.554;8.820;2023-02-21T10:49:57;6.30;;;2.77;;
8716;SDS011;4395;48.554;8.820;2023-02-21T10:52:08;5.27;;;2.50;;
8716;SDS011;4395;48.554;8.820;2023-02-21T10:54:16;5.20;;;2.40;;
8716;SDS011;4395;48.554;8.820;2023-02-21T10:56:22;4.03;;;2.40;;
8716;SDS011;4395;48.554;8.820;2023-02-21T10:58:28;4.17;;;2.60;;
8716;SDS011;4395;48.554;8.820;2023-02-21T11:00:32;12.63;;;3.43;;
8716;SDS011;4395;48.554;8.820;2023-02-21T11:02:36;6.87;;;2.50;;
8716;SDS011;4395;48.554;8.820;2023-02-21T11:04:41;3.47;;;2.33;;
8716;SDS011;4395;48.554;8.820;2023-02-21T11:06:46;4.90;;;2.47;;
8716;SDS011;4395;48.554;8.820;2023-02-21T11:08:50;2.30;;;2.00;;
8716;SDS011;4395;48.554;8.820;2023-02-21T11:10:53;3.57;;;1.90;;
8716;SDS011;4395;48.554;8.820;2023-02-21T11:13:06;2.77;;;2.20;;
8716;SDS011;4395;48.554;8.820;2023-02-21T11:15:17;5.37;;;2.00;;
8716;SDS011;4395;48.554;8.820;2023-02-21T11:17:21;3.97;;;2.13;;
8716;SDS011;4395;48.554;8.820;2023-02-21T11:19:24;6.13;;;2.00;;
8716;SDS011;4395;48.554;8.820;2023-02-21T11:21:27;4.00;;;1.97;;
8716;SDS011;4395;48.554;8.820;2023-02-21T11:23:29;3.60;;;1.83;;
8716;SDS011;4395;48.554;8.820;2023-02-21T11:25:37;22.67;;;12.63;;
8716;SDS011;4395;48.554;8.820;2023-02-21T11:27:41;8.43;;;3.40;;
8716;SDS011;4395;48.554;8.820;2023-02-21T11:29:47;3.53;;;1.57;;
8716;SDS011;4395;48.554;8.820;2023-02-21T11:31:53;3.60;;;1.90;;
8716;SDS011;4395;48.554;8.820;2023-02-21T11:33:58;2.40;;;1.60;;
8716;SDS011;4395;48.554;8.820;2023-02-21T11:36:08;3.37;;;1.10;;
8716;SDS011;4395;48.554;8.820;2023-02-21T11:40:39;3.30;;;1.40;;
8716;SDS011;4395;48.554;8.820;2023-02-21T11:42:44;2.50;;;1.77;;
8716;SDS011;4395;48.554;8.820;2023-02-21T11:44:47;1.73;;;1.03;;
8716;SDS011;4395;48.554;8.820;2023-02-21T11:47:07;1.83;;;1.40;;
8716;SDS011;4395;48.554;8.820;2023-02-21T11:49:16;21.20;;;4.30;;
8716;SDS011;4395;48.554;8.820;2023-02-21T11:51:30;1.87;;;1.30;;
8716;SDS011;4395;48.554;8.820;2023-02-21T11:53:38;2.17;;;1.40;;
8716;SDS011;4395;48.554;8.820;2023-02-21T11:55:47;1.10;;;0.90;;
8716;SDS011;4395;48.554;8.820;2023-02-21T11:58:03;2.47;;;1.00;;
8716;SDS011;4395;48.554;8.820;2023-02-21T12:00:16;4.30;;;2.07;;
8716;SDS011;4395;48.554;8.820;2023-02-21T12:02:38;3.77;;;3.37;;
8716;SDS011;4395;48.554;8.820;2023-02-21T12:05:08;1.10;;;0.97;;
8716;SDS011;4395;48.554;8.820;2023-02-21T12:07:25;3.03;;;1.63;;
8716;SDS011;4395;48.554;8.820;2023-02-21T12:09:37;0.80;;;0.80;;
8716;SDS011;4395;48.554;8.820;2023-02-21T12:11:54;0.90;;;0.90;;
8716;SDS011;4395;48.554;8.820;2023-02-21T12:16:45;1.57;;;0.80;;
8716;SDS011;4395;48.554;8.820;2023-02-21T12:19:03;2.10;;;1.83;;
8716;SDS011;4395;48.554;8.820;2023-02-21T12:21:22;1.03;;;0.70;;
8716;SDS011;4395;48.554;8.820;2023-02-21T12:23:41;1.60;;;0.70;;
8716;SDS011;4395;48.554;8.820;2023-02-21T12:25:59;0.87;;;0.60;;
8716;SDS011;4395;48.554;8.820;2023-02-21T12:28:12;2.37;;;1.00;;
8716;SDS011;4395;48.554;8.820;2023-02-21T12:30:31;1.03;;;0.67;;
8716;SDS011;4395;48.554;8.820;2023-02-21T12:32:47;1.37;;;0.40;;
8716;SDS011;4395;48.554;8.820;2023-02-21T12:34:58;0.67;;;0.50;;
8716;SDS011;4395;48.554;8.820;2023-02-21T12:37:17;1.47;;;1.00;;
8716;SDS011;4395;48.554;8.820;2023-02-21T12:39:29;2.47;;;0.80;;
8716;SDS011;4395;48.554;8.820;2023-02-21T12:41:48;1.37;;;0.70;;
8716;SDS011;4395;48.554;8.820;2023-02-21T12:44:11;1.13;;;0.93;;
8716;SDS011;4395;48.554;8.820;2023-02-21T12:46:18;2.73;;;2.17;;
8716;SDS011;4395;48.554;8.820;2023-02-21T12:48:29;10.43;;;2.53;;
8716;SDS011;4395;48.554;8.820;2023-02-21T12:50:37;3.37;;;1.33;;
8716;SDS011;4395;48.554;8.820;2023-02-21T12:52:57;2.43;;;1.50;;
8716;SDS011;4395;48.554;8.820;2023-02-21T12:55:04;6.23;;;1.20;;
8716;SDS011;4395;48.554;8.820;2023-02-21T12:57:15;1.60;;;1.10;;
8716;SDS011;4395;48.554;8.820;2023-02-21T12:59:23;0.50;;;0.50;;
8716;SDS011;4395;48.554;8.820;2023-02-21T13:03:37;1.70;;;1.10;;
8716;SDS011;4395;48.554;8.820;2023-02-21T13:05:46;1.70;;;0.90;;
8716;SDS011;4395;48.554;8.820;2023-02-21T13:07:52;1.67;;;0.83;;
8716;SDS011;4395;48.554;8.820;2023-02-21T13:10:02;8.73;;;1.93;;
8716;SDS011;4395;48.554;8.820;2023-02-21T13:12:09;5.63;;;1.60;;
8716;SDS011;4395;48.554;8.820;2023-02-21T13:14:16;0.70;;;0.43;;
8716;SDS011;4395;48.554;8.820;2023-02-21T13:16:24;0.80;;;0.70;;
8716;SDS011;4395;48.554;8.820;2023-02-21T13:18:28;4.27;;;1.10;;
8716;SDS011;4395;48.554;8.820;2023-02-21T13:20:35;10.67;;;2.00;;
8716;SDS011;4395;48.554;8.820;2023-02-21T13:26:02;3.07;;;1.40;;
8716;SDS011;4395;48.554;8.820;2023-02-21T13:28:19;5.10;;;4.27;;
8716;SDS011;4395;48.554;8.820;2023-02-21T13:30:25;3.27;;;1.30;;
8716;SDS011;4395;48.554;8.820;2023-02-21T13:32:38;3.60;;;2.67;;
8716;SDS011;4395;48.554;8.820;2023-02-21T13:34:42;4.90;;;1.60;;
8716;SDS011;4395;48.554;8.820;2023-02-21T13:36:48;6.47;;;1.73;;
8716;SDS011;4395;48.554;8.820;2023-02-21T13:38:55;2.10;;;1.17;;